KEDE/EDE METAR and TAF weather

Enter ICAO airport designator
Station Type Date Time Source
KEDE METAR 2020/02/21 00:15 UTC NOAA

KEDE 210015Z AUTO 01006KT 2 1/2SM UP OVC004 02/02 A3032 RMK AO2 P0002 T00150015


Station Type Date Time Source
KEDE Decoded METAR 2020/02/21 00:15 UTC NOAA

Edenton, Northeastern Regional Airport, NC, United States (KEDE) 36-01-40N 076-34-02W
Feb 20, 2020 - 07:15 PM EST / 2020.02.21 0015 UTC
Wind: from the N (010 degrees) at 7 MPH (6 KT):0
Visibility: 2 1/2 mile(s):0
Sky conditions: overcast
Weather: precipitation
Precipitation last hour: 0.02 inches
Temperature: 34.7 F (1.5 C)
Windchill: 28 F (-2 C):1
Dew Point: 34.7 F (1.5 C)
Relative Humidity: 100%
Pressure (altimeter): 30.32 in. Hg (1026 hPa)
ob: KEDE 210015Z AUTO 01006KT 2 1/2SM UP OVC004 02/02 A3032 RMK AO2 P0002 T00150015
cycle: 0

Station Type Date Time Source
KEDE TAF UTC NOAA

Error!

Example: see airport list